createdAt,value
2022-12-01T00:01:06.709Z,101215.81
2022-12-01T00:03:34.084Z,101211.59
2022-12-01T00:06:12.346Z,101215.97
2022-12-01T00:08:39.140Z,101210.50
2022-12-01T00:11:08.173Z,101214.13
2022-12-01T00:13:35.824Z,101210.66
2022-12-01T00:16:12.364Z,101210.75
2022-12-01T00:18:38.954Z,101214.28
2022-12-01T00:21:05.901Z,101214.28
2022-12-01T00:23:32.383Z,101204.81
2022-12-01T00:26:05.553Z,101216.00
2022-12-01T00:28:32.244Z,101212.53
2022-12-01T00:31:00.104Z,101213.44
2022-12-01T00:33:26.735Z,101215.16
2022-12-01T00:36:03.541Z,101212.56
2022-12-01T00:38:30.564Z,101208.28
2022-12-01T00:40:57.390Z,101199.63
2022-12-01T00:43:24.885Z,101205.53
2022-12-01T00:45:51.841Z,101196.09
2022-12-01T00:48:18.689Z,101197.00
2022-12-01T00:50:45.554Z,101202.13
2022-12-01T00:53:12.053Z,101201.44
2022-12-01T00:55:40.151Z,101199.66
2022-12-01T00:58:07.428Z,101208.41
2022-12-01T01:00:34.101Z,101217.13
2022-12-01T01:03:00.555Z,101207.19
2022-12-01T01:05:27.048Z,101208.03
2022-12-01T01:07:53.564Z,101209.88
2022-12-01T01:10:20.108Z,101208.19
2022-12-01T01:12:46.623Z,101206.47
2022-12-01T01:15:13.104Z,101210.78
2022-12-01T01:17:39.617Z,101211.78
2022-12-01T01:20:06.883Z,101221.47
2022-12-01T01:22:34.937Z,101215.25
2022-12-01T01:25:01.746Z,101213.63
2022-12-01T01:27:28.203Z,101216.31
2022-12-01T01:29:54.683Z,101216.25
2022-12-01T01:32:21.179Z,101218.03
2022-12-01T01:34:47.654Z,101220.66
2022-12-01T01:37:14.159Z,101216.41
2022-12-01T01:39:40.600Z,101222.22
2022-12-01T01:42:13.256Z,101223.16
2022-12-01T01:44:57.110Z,101224.75
2022-12-01T01:47:32.658Z,101224.16
2022-12-01T01:50:06.201Z,101218.03
2022-12-01T01:52:36.469Z,101216.47
2022-12-01T01:55:03.512Z,101214.50
2022-12-01T01:57:33.323Z,101217.94
2022-12-01T02:00:11.867Z,101225.84
2022-12-01T02:02:43.564Z,101224.09
2022-12-01T02:05:16.385Z,101222.34
2022-12-01T02:07:43.104Z,101224.13
2022-12-01T02:10:13.225Z,101218.06
2022-12-01T02:12:58.300Z,101221.56
2022-12-01T02:15:49.426Z,101208.47
2022-12-01T02:18:41.636Z,101210.22
2022-12-01T02:21:08.118Z,101217.13
2022-12-01T02:23:43.388Z,101215.41
2022-12-01T02:26:44.963Z,101220.75
2022-12-01T02:29:23.700Z,101214.69
2022-12-01T02:32:04.693Z,101222.34
2022-12-01T02:34:55.565Z,101215.44
2022-12-01T02:37:34.142Z,101211.94
2022-12-01T02:40:20.766Z,101217.97
2022-12-01T02:43:03.595Z,101218.59
2022-12-01T02:45:37.188Z,101222.81
2022-12-01T02:48:09.784Z,101234.19
2022-12-01T02:50:39.556Z,101232.66
2022-12-01T02:53:08.734Z,101227.38
2022-12-01T02:55:35.466Z,101225.00
2022-12-01T02:58:02.004Z,101231.78
2022-12-01T03:00:30.586Z,101225.66
2022-12-01T03:03:27.760Z,101219.47
2022-12-01T03:06:02.994Z,101226.63
2022-12-01T03:08:46.026Z,101220.22
2022-12-01T03:11:27.156Z,101222.34
2022-12-01T03:14:11.932Z,101217.97
2022-12-01T03:16:47.538Z,101210.28
2022-12-01T03:19:38.545Z,101218.09
2022-12-01T03:22:10.334Z,101210.28
2022-12-01T03:24:38.939Z,101211.97
2022-12-01T03:27:06.332Z,101217.22
2022-12-01T03:29:43.567Z,101221.53
2022-12-01T03:32:24.911Z,101226.75
2022-12-01T03:34:59.154Z,101222.44
2022-12-01T03:37:46.896Z,101228.34
2022-12-01T03:40:18.159Z,101224.16
2022-12-01T03:42:57.052Z,101219.78
2022-12-01T03:45:52.780Z,101224.13
2022-12-01T03:48:19.512Z,101220.69
2022-12-01T03:50:56.656Z,101222.38
2022-12-01T03:53:28.222Z,101225.84
2022-12-01T03:56:02.892Z,101222.38
2022-12-01T03:58:34.990Z,101229.38
2022-12-01T04:01:05.315Z,101232.88
2022-12-01T04:03:31.868Z,101231.94
2022-12-01T04:05:58.961Z,101231.00
2022-12-01T04:08:25.643Z,101230.25
2022-12-01T04:10:52.185Z,101235.41
2022-12-01T04:13:25.585Z,101237.13
2022-12-01T04:15:55.447Z,101240.47
2022-12-01T04:18:22.359Z,101230.16
2022-12-01T04:20:50.613Z,101230.19
2022-12-01T04:23:35.692Z,101233.75
2022-12-01T04:26:04.556Z,101232.81
2022-12-01T04:28:31.037Z,101228.47
2022-12-01T04:30:57.563Z,101235.44
2022-12-01T04:33:24.131Z,101231.84
2022-12-01T04:35:58.595Z,101231.84
2022-12-01T04:38:30.294Z,101228.34
2022-12-01T04:40:57.427Z,101231.97
2022-12-01T04:43:23.931Z,101229.19
2022-12-01T04:45:50.447Z,101237.06
2022-12-01T04:48:16.986Z,101237.16
2022-12-01T04:50:43.432Z,101237.06
2022-12-01T04:53:09.905Z,101234.63
2022-12-01T04:55:39.047Z,101237.13
2022-12-01T04:58:06.050Z,101233.69
2022-12-01T05:00:33.288Z,101233.50
2022-12-01T05:03:00.125Z,101234.31
2022-12-01T05:05:26.976Z,101236.09
2022-12-01T05:07:53.556Z,101233.59
2022-12-01T05:10:20.376Z,101231.06
2022-12-01T05:12:47.042Z,101244.13
2022-12-01T05:15:13.580Z,101243.09
2022-12-01T05:17:40.094Z,101247.50
2022-12-01T05:20:26.025Z,101254.44
2022-12-01T05:23:09.811Z,101248.22
2022-12-01T05:25:39.100Z,101249.09
2022-12-01T05:28:06.538Z,101251.81
2022-12-01T05:30:33.094Z,101248.31
2022-12-01T05:32:59.700Z,101245.84
2022-12-01T05:35:26.342Z,101251.91
2022-12-01T05:37:52.844Z,101244.03
2022-12-01T05:40:19.402Z,101249.31
2022-12-01T05:42:45.922Z,101247.50
2022-12-01T05:45:12.413Z,101245.81
2022-12-01T05:47:38.884Z,101255.25
2022-12-01T05:50:06.279Z,101252.72
2022-12-01T05:52:36.756Z,101263.94
2022-12-01T05:55:04.800Z,101256.06
2022-12-01T05:57:32.548Z,101257.00
2022-12-01T05:59:59.581Z,101257.88
2022-12-01T06:02:29.515Z,101263.69
2022-12-01T06:04:55.996Z,101264.78
2022-12-01T06:07:25.211Z,101265.69
2022-12-01T06:09:53.014Z,101265.72
2022-12-01T06:12:19.927Z,101266.50
2022-12-01T06:14:46.452Z,101263.94
2022-12-01T06:17:12.929Z,101263.03
2022-12-01T06:19:39.517Z,101261.28
2022-12-01T06:22:06.090Z,101255.16
2022-12-01T06:24:32.589Z,101264.81
2022-12-01T06:26:59.102Z,101271.66
2022-12-01T06:29:25.607Z,101278.63
2022-12-01T06:31:52.232Z,101274.31
2022-12-01T06:34:18.775Z,101265.56
2022-12-01T06:36:45.258Z,101270.78
2022-12-01T06:39:11.815Z,101274.34
2022-12-01T06:41:39.177Z,101278.59
2022-12-01T06:44:05.897Z,101275.13
2022-12-01T06:46:32.531Z,101276.88
2022-12-01T06:48:59.082Z,101283.91
2022-12-01T06:51:25.750Z,101284.81
2022-12-01T06:53:58.644Z,101284.06
2022-12-01T06:56:28.681Z,101287.41
2022-12-01T06:58:55.290Z,101289.19
2022-12-01T07:01:22.141Z,101284.88
2022-12-01T07:03:50.440Z,101281.41
2022-12-01T07:06:17.989Z,101289.16
2022-12-01T07:08:44.926Z,101286.47
2022-12-01T07:11:13.446Z,101290.00
2022-12-01T07:13:41.122Z,101296.06
2022-12-01T07:16:09.579Z,101297.75
2022-12-01T07:18:37.114Z,101297.81
2022-12-01T07:21:07.079Z,101304.78
2022-12-01T07:23:34.052Z,101308.09
2022-12-01T07:26:06.517Z,101303.78
2022-12-01T07:28:33.755Z,101307.31
2022-12-01T07:31:13.898Z,101309.13
2022-12-01T07:33:40.653Z,101298.50
2022-12-01T07:36:08.097Z,101312.53
2022-12-01T07:38:35.703Z,101304.78
2022-12-01T07:41:03.621Z,101310.78
2022-12-01T07:43:31.835Z,101318.44
2022-12-01T07:46:11.317Z,101314.22
2022-12-01T07:48:40.086Z,101308.94
2022-12-01T07:51:08.529Z,101314.03
2022-12-01T07:53:35.676Z,101305.50
2022-12-01T07:56:08.222Z,101305.63
2022-12-01T07:58:35.695Z,101311.66
2022-12-01T08:01:16.986Z,101315.97
2022-12-01T08:03:43.845Z,101315.09
2022-12-01T08:06:10.765Z,101319.38
2022-12-01T08:08:39.069Z,101317.66
2022-12-01T08:11:08.304Z,101311.53
2022-12-01T08:13:35.028Z,101313.28
2022-12-01T08:16:05.956Z,101313.25
2022-12-01T08:18:37.869Z,101314.09
2022-12-01T08:21:05.721Z,101320.31
2022-12-01T08:23:33.113Z,101324.53
2022-12-01T08:26:04.258Z,101325.38
2022-12-01T08:28:30.856Z,101320.03
2022-12-01T08:30:57.651Z,101321.13
2022-12-01T08:33:24.456Z,101318.53
2022-12-01T08:35:51.011Z,101322.81
2022-12-01T08:38:17.730Z,101318.31
2022-12-01T08:40:44.303Z,101325.28
2022-12-01T08:43:23.172Z,101319.13
2022-12-01T08:45:59.290Z,101324.47
2022-12-01T08:48:26.235Z,101323.78
2022-12-01T08:50:52.741Z,101325.41
2022-12-01T08:53:19.234Z,101324.69
2022-12-01T08:55:45.766Z,101330.66
2022-12-01T08:58:12.336Z,101326.22
2022-12-01T09:00:38.892Z,101327.06
2022-12-01T09:03:05.421Z,101329.63
2022-12-01T09:05:31.954Z,101325.34
2022-12-01T09:08:16.784Z,101325.16
2022-12-01T09:10:51.596Z,101333.94
2022-12-01T09:13:18.194Z,101333.94
2022-12-01T09:15:44.883Z,101336.63
2022-12-01T09:18:11.391Z,101331.44
2022-12-01T09:20:37.954Z,101338.34
2022-12-01T09:23:04.626Z,101336.59
2022-12-01T09:25:31.097Z,101328.81
2022-12-01T09:27:57.598Z,101334.72
2022-12-01T09:30:24.132Z,101324.50
2022-12-01T09:32:50.762Z,101337.38
2022-12-01T09:35:22.029Z,101335.63
2022-12-01T09:37:49.881Z,101331.34
2022-12-01T09:40:16.583Z,101321.72
2022-12-01T09:42:45.922Z,101319.22
2022-12-01T09:45:25.474Z,101321.69
2022-12-01T09:47:55.848Z,101317.38
2022-12-01T09:50:25.501Z,101323.44
2022-12-01T09:52:57.105Z,101322.53
2022-12-01T09:55:25.688Z,101320.88
2022-12-01T09:57:55.208Z,101323.50
2022-12-01T10:00:30.019Z,101323.31
2022-12-01T10:03:15.099Z,101314.72
2022-12-01T10:06:26.184Z,101315.03
2022-12-01T10:08:51.344Z,101314.13
2022-12-01T10:11:39.076Z,101310.53
2022-12-01T10:14:17.944Z,101308.53
2022-12-01T10:17:11.144Z,101311.09
2022-12-01T10:19:44.655Z,101312.97
2022-12-01T10:22:36.081Z,101307.63
2022-12-01T10:25:20.091Z,101304.31
2022-12-01T10:27:59.735Z,101305.16
2022-12-01T10:30:26.322Z,101304.22
2022-12-01T10:32:55.464Z,101296.41
2022-12-01T10:35:25.354Z,101293.59
2022-12-01T10:38:00.285Z,101296.00
2022-12-01T10:40:27.920Z,101287.38
2022-12-01T10:42:55.667Z,101287.53
2022-12-01T10:45:27.549Z,101287.41
2022-12-01T10:48:21.792Z,101286.47
2022-12-01T10:50:54.294Z,101287.47
2022-12-01T10:53:23.855Z,101286.03
2022-12-01T10:55:56.506Z,101286.78
2022-12-01T10:58:23.134Z,101287.72
2022-12-01T11:01:03.680Z,101281.41
2022-12-01T11:03:33.270Z,101282.50
2022-12-01T11:06:00.867Z,101283.44
2022-12-01T11:08:36.364Z,101281.41
2022-12-01T11:11:03.472Z,101284.16
2022-12-01T11:13:34.039Z,101286.91
2022-12-01T11:16:03.645Z,101284.03
2022-12-01T11:18:37.620Z,101282.19
2022-12-01T11:21:12.269Z,101277.94
2022-12-01T11:23:46.049Z,101279.22
2022-12-01T11:26:24.133Z,101281.75
2022-12-01T11:28:53.911Z,101283.59
2022-12-01T11:31:24.354Z,101273.09
2022-12-01T11:33:56.279Z,101271.28
2022-12-01T11:36:35.760Z,101279.81
2022-12-01T11:39:03.212Z,101273.75
2022-12-01T11:41:32.411Z,101272.84
2022-12-01T11:44:02.755Z,101263.03
2022-12-01T11:46:45.976Z,101258.91
2022-12-01T11:49:19.832Z,101263.25
2022-12-01T11:51:46.732Z,101255.28
2022-12-01T11:54:20.743Z,101249.16
2022-12-01T11:56:56.181Z,101253.50
2022-12-01T11:59:35.731Z,101248.19
2022-12-01T12:02:17.478Z,101250.13
2022-12-01T12:05:11.529Z,101246.03
2022-12-01T12:07:53.478Z,101245.81
2022-12-01T12:10:34.616Z,101253.00
2022-12-01T12:13:07.141Z,101244.84
2022-12-01T12:15:58.028Z,101249.34
2022-12-01T12:18:52.451Z,101244.06
2022-12-01T12:21:18.790Z,101251.09
2022-12-01T12:23:54.293Z,101242.25
2022-12-01T12:26:28.712Z,101238.16
2022-12-01T12:28:55.203Z,101242.47
2022-12-01T12:32:09.916Z,101235.44
2022-12-01T12:34:44.265Z,101235.38
2022-12-01T12:37:24.564Z,101234.13
2022-12-01T12:39:59.388Z,101229.81
2022-12-01T12:42:50.357Z,101233.22
2022-12-01T12:45:38.064Z,101235.75
2022-12-01T12:48:16.727Z,101240.38
2022-12-01T12:50:50.792Z,101244.59
2022-12-01T12:53:22.208Z,101236.28
2022-12-01T12:55:52.841Z,101242.56
2022-12-01T12:58:23.105Z,101240.00
2022-12-01T13:00:56.182Z,101235.53
2022-12-01T13:03:42.376Z,101233.56
2022-12-01T13:06:34.976Z,101233.63
2022-12-01T13:09:14.203Z,101240.72
2022-12-01T13:12:15.868Z,101233.50
2022-12-01T13:14:59.466Z,101235.34
2022-12-01T13:17:38.542Z,101231.03
2022-12-01T13:20:06.252Z,101233.91
2022-12-01T13:22:36.973Z,101223.22
2022-12-01T13:25:04.421Z,101223.25
2022-12-01T13:27:35.851Z,101230.91
2022-12-01T13:30:03.358Z,101231.88
2022-12-01T13:32:40.294Z,101231.88
2022-12-01T13:35:19.065Z,101239.81
2022-12-01T13:37:45.641Z,101224.16
2022-12-01T13:40:31.384Z,101239.63
2022-12-01T13:43:10.623Z,101238.09
2022-12-01T13:45:40.327Z,101244.16
2022-12-01T13:48:30.199Z,101233.59
2022-12-01T13:51:00.136Z,101231.81
2022-12-01T13:53:34.266Z,101240.59
2022-12-01T13:56:03.856Z,101235.28
2022-12-01T13:58:33.085Z,101235.56
2022-12-01T14:01:22.423Z,101232.66
2022-12-01T14:03:57.081Z,101229.31
2022-12-01T14:06:49.388Z,101223.09
2022-12-01T14:09:28.047Z,101220.72
2022-12-01T14:11:58.307Z,101225.06
2022-12-01T14:14:28.319Z,101224.72
2022-12-01T14:17:00.921Z,101224.91
2022-12-01T14:19:52.016Z,101213.75
2022-12-01T14:22:35.779Z,101217.13
2022-12-01T14:25:05.390Z,101208.28
2022-12-01T14:27:42.534Z,101214.41
2022-12-01T14:30:45.683Z,101222.06
2022-12-01T14:33:40.028Z,101223.75
2022-12-01T14:36:34.851Z,101221.78
2022-12-01T14:39:18.895Z,101224.47
2022-12-01T14:41:51.076Z,101218.91
2022-12-01T14:44:27.413Z,101219.91
2022-12-01T14:46:59.999Z,101218.03
2022-12-01T14:49:32.543Z,101221.72
2022-12-01T14:52:05.173Z,101219.06
2022-12-01T14:54:42.004Z,101217.31
2022-12-01T14:57:16.343Z,101212.09
2022-12-01T14:59:43.402Z,101210.16
2022-12-01T15:02:12.215Z,101210.44
2022-12-01T15:05:12.219Z,101210.56
2022-12-01T15:07:42.192Z,101205.38
2022-12-01T15:10:21.220Z,101209.59
2022-12-01T15:12:49.386Z,101208.13
2022-12-01T15:15:24.193Z,101205.50
2022-12-01T15:17:52.444Z,101204.53
2022-12-01T15:20:35.738Z,101201.09
2022-12-01T15:23:09.013Z,101207.19
2022-12-01T15:25:37.060Z,101207.84
2022-12-01T15:28:16.053Z,101207.19
2022-12-01T15:30:46.450Z,101205.44
2022-12-01T15:33:26.775Z,101207.13
2022-12-01T15:35:55.031Z,101209.69
2022-12-01T15:38:25.104Z,101204.47
2022-12-01T15:41:27.885Z,101218.53
2022-12-01T15:43:41.270Z,101217.63
2022-12-01T15:46:17.361Z,101212.31
2022-12-01T15:48:45.631Z,101214.88
2022-12-01T15:51:27.849Z,101213.34
2022-12-01T15:54:01.169Z,101207.94
2022-12-01T15:56:35.066Z,101209.00
2022-12-01T15:59:20.758Z,101209.69
2022-12-01T16:01:47.374Z,101218.41
2022-12-01T16:04:22.917Z,101212.31
2022-12-01T16:06:59.405Z,101212.34
2022-12-01T16:09:58.506Z,101217.66
2022-12-01T16:12:32.910Z,101211.56
2022-12-01T16:15:12.137Z,101216.75
2022-12-01T16:17:49.171Z,101225.44
2022-12-01T16:20:23.779Z,101222.88
2022-12-01T16:22:59.066Z,101225.56
2022-12-01T16:25:29.747Z,101228.09
2022-12-01T16:27:57.481Z,101222.84
2022-12-01T16:30:27.334Z,101217.63
2022-12-01T16:33:21.844Z,101215.09
2022-12-01T16:35:48.636Z,101223.72
2022-12-01T16:38:20.547Z,101221.22
2022-12-01T16:40:58.347Z,101222.88
2022-12-01T16:43:27.337Z,101225.50
2022-12-01T16:46:03.195Z,101224.72
2022-12-01T16:48:30.917Z,101225.47
2022-12-01T16:51:01.551Z,101221.22
2022-12-01T16:53:28.079Z,101226.31
2022-12-01T16:55:56.654Z,101230.63
2022-12-01T16:58:23.539Z,101224.75
2022-12-01T17:00:53.440Z,101223.81
2022-12-01T17:03:22.264Z,101228.09
2022-12-01T17:05:49.120Z,101227.22
2022-12-01T17:08:16.904Z,101214.19
2022-12-01T17:10:45.654Z,101226.31
2022-12-01T17:13:13.045Z,101217.75
2022-12-01T17:15:44.222Z,101225.56
2022-12-01T17:18:11.384Z,101225.44
2022-12-01T17:20:37.957Z,101220.41
2022-12-01T17:23:05.055Z,101222.97
2022-12-01T17:25:31.993Z,101216.94
2022-12-01T17:27:58.549Z,101211.75
2022-12-01T17:30:25.080Z,101216.66
2022-12-01T17:32:51.604Z,101211.28
2022-12-01T17:35:18.213Z,101215.88
2022-12-01T17:37:44.759Z,101221.91
2022-12-01T17:40:16.093Z,101223.75
2022-12-01T17:50:40.993Z,101229.84
2022-12-01T17:53:07.504Z,101215.97
2022-12-01T17:55:34.121Z,101221.13
2022-12-01T17:58:00.646Z,101227.22
2022-12-01T18:00:27.322Z,101227.22
2022-12-01T18:02:53.925Z,101228.03
2022-12-01T18:05:20.706Z,101233.19
2022-12-01T18:07:47.782Z,101230.66
2022-12-01T18:10:14.413Z,101228.84
2022-12-01T18:12:40.944Z,101226.28
2022-12-01T18:15:08.276Z,101223.59
2022-12-01T18:17:34.881Z,101228.75
2022-12-01T18:20:01.542Z,101224.22
2022-12-01T18:22:28.258Z,101233.16
2022-12-01T18:24:56.301Z,101234.66
2022-12-01T18:27:22.996Z,101235.69
2022-12-01T18:29:49.544Z,101227.13
2022-12-01T18:32:16.926Z,101228.63
2022-12-01T18:34:43.602Z,101221.81
2022-12-01T18:37:10.144Z,101214.59
2022-12-01T18:39:36.689Z,101223.53
2022-12-01T18:42:03.343Z,101220.13
2022-12-01T18:44:30.049Z,101221.06
2022-12-01T18:46:57.746Z,101214.69
2022-12-01T18:49:24.735Z,101217.34
2022-12-01T18:51:51.330Z,101216.56
2022-12-01T18:54:17.968Z,101213.13
2022-12-01T18:56:45.307Z,101219.06
2022-12-01T18:59:13.726Z,101204.38
2022-12-01T19:01:44.106Z,101200.66
2022-12-01T19:04:11.826Z,101205.97
2022-12-01T19:06:39.629Z,101208.50
2022-12-01T19:09:09.185Z,101208.50
2022-12-01T19:11:40.617Z,101206.72
2022-12-01T19:14:08.513Z,101201.38
2022-12-01T19:16:35.329Z,101204.88
2022-12-01T19:19:02.063Z,101200.69
2022-12-01T19:21:28.694Z,101199.06
2022-12-01T19:23:55.357Z,101196.50
2022-12-01T19:26:26.053Z,101194.56
2022-12-01T19:28:52.907Z,101203.38
2022-12-01T19:31:24.949Z,101196.44
2022-12-01T19:33:54.856Z,101196.50
2022-12-01T19:36:24.260Z,101201.78
2022-12-01T19:38:51.480Z,101200.59
2022-12-01T19:41:23.147Z,101196.34
2022-12-01T19:43:49.804Z,101201.44
2022-12-01T19:46:19.849Z,101199.59
2022-12-01T19:48:48.391Z,101204.66
2022-12-01T19:51:23.454Z,101190.75
2022-12-01T19:53:50.486Z,101198.66
2022-12-01T19:56:17.883Z,101191.78
2022-12-01T19:58:44.580Z,101200.41
2022-12-01T20:01:13.661Z,101188.59
2022-12-01T20:03:41.032Z,101193.50
2022-12-01T20:06:12.390Z,101191.28
2022-12-01T20:08:41.871Z,101195.56
2022-12-01T20:11:08.755Z,101196.22
2022-12-01T20:13:37.842Z,101198.66
2022-12-01T20:16:09.279Z,101196.84
2022-12-01T20:18:36.619Z,101191.84
2022-12-01T20:21:17.458Z,101186.13
2022-12-01T20:23:46.321Z,101186.91
2022-12-01T20:26:14.385Z,101192.66
2022-12-01T20:28:41.923Z,101193.66
2022-12-01T20:31:14.944Z,101188.75
2022-12-01T20:33:42.494Z,101190.94
2022-12-01T20:36:09.800Z,101185.00
2022-12-01T20:38:37.477Z,101189.25
2022-12-01T20:41:05.352Z,101192.66
2022-12-01T20:43:33.053Z,101185.22
2022-12-01T20:45:59.916Z,101184.25
2022-12-01T20:48:27.669Z,101182.63
2022-12-01T20:50:54.365Z,101183.19
2022-12-01T20:53:21.479Z,101183.31
2022-12-01T20:55:48.271Z,101171.22
2022-12-01T20:58:15.524Z,101177.31
2022-12-01T21:00:45.647Z,101169.50
2022-12-01T21:03:13.054Z,101171.06
2022-12-01T21:05:40.745Z,101167.66
2022-12-01T21:08:10.294Z,101164.88
2022-12-01T21:10:46.299Z,101169.22
2022-12-01T21:13:42.282Z,101172.56
2022-12-01T21:16:19.149Z,101171.84
2022-12-01T21:18:53.484Z,101165.00
2022-12-01T21:21:24.514Z,101158.75
2022-12-01T21:24:00.205Z,101168.50
2022-12-01T21:26:26.763Z,101165.66
2022-12-01T21:28:58.740Z,101168.56
2022-12-01T21:31:25.680Z,101164.19
2022-12-01T21:33:52.732Z,101164.19
2022-12-01T21:36:22.255Z,101170.16
2022-12-01T21:38:53.891Z,101174.53
2022-12-01T21:41:30.537Z,101181.31
2022-12-01T21:44:02.571Z,101170.81
2022-12-01T21:46:29.927Z,101175.31
2022-12-01T21:48:56.590Z,101175.22
2022-12-01T21:51:24.997Z,101176.13
2022-12-01T21:53:55.620Z,101165.59
2022-12-01T21:56:25.445Z,101164.16
2022-12-01T21:58:53.220Z,101160.44
2022-12-01T22:01:26.996Z,101153.41
2022-12-01T22:04:00.571Z,101157.00
2022-12-01T22:06:35.930Z,101157.97
2022-12-01T22:09:31.471Z,101159.59
2022-12-01T22:12:00.291Z,101161.56
2022-12-01T22:14:34.555Z,101164.16
2022-12-01T22:17:07.233Z,101152.69
2022-12-01T22:19:35.444Z,101153.41
2022-12-01T22:22:11.129Z,101149.09
2022-12-01T22:24:43.802Z,101151.66
2022-12-01T22:27:35.731Z,101161.38
2022-12-01T22:30:16.648Z,101161.22
2022-12-01T22:32:59.264Z,101153.53
2022-12-01T22:35:36.410Z,101152.75
2022-12-01T22:38:05.662Z,101153.19
2022-12-01T22:40:56.656Z,101152.31
2022-12-01T22:43:39.064Z,101145.78
2022-12-01T22:46:26.145Z,101154.66
2022-12-01T22:48:58.880Z,101147.66
2022-12-01T22:51:28.778Z,101145.00
2022-12-01T22:54:05.949Z,101141.28
2022-12-01T22:56:39.895Z,101139.50
2022-12-01T22:59:20.793Z,101137.06
2022-12-01T23:01:59.724Z,101143.06
2022-12-01T23:04:31.072Z,101136.19
2022-12-01T23:07:31.635Z,101133.38
2022-12-01T23:10:18.049Z,101132.53
2022-12-01T23:12:46.685Z,101129.22
2022-12-01T23:15:25.408Z,101124.06
2022-12-01T23:17:52.534Z,101123.63
2022-12-01T23:20:22.105Z,101119.69
2022-12-01T23:22:48.583Z,101112.56
2022-12-01T23:25:18.239Z,101108.38
2022-12-01T23:27:45.774Z,101114.47
2022-12-01T23:30:14.630Z,101110.28
2022-12-01T23:32:41.533Z,101110.19
2022-12-01T23:35:16.497Z,101101.34
2022-12-01T23:37:46.334Z,101108.94
2022-12-01T23:40:33.055Z,101106.25
2022-12-01T23:43:13.699Z,101099.25
2022-12-01T23:45:40.388Z,101093.31
2022-12-01T23:48:19.022Z,101099.41
2022-12-01T23:50:46.637Z,101102.09
2022-12-01T23:53:28.814Z,101096.72
2022-12-01T23:56:02.204Z,101093.25
2022-12-01T23:58:28.792Z,101088.97
